Time,TemperatureF,DewpointF,PressureIn,WindDirection,WindDirectionDegrees,WindSpeedMPH,WindSpeedGustMPH,Humidity,HourlyPrecipIn,Conditions,Clouds,dailyrainin,SolarRadiationWatts/m^2,SoftwareType,DateUTC
2013-02-09 00:02:00,36.9,33.4,30.15,SW,229,0.0,2.0,87,0.00,,,0.00,0,WeatherCatV1.13B101,2013-02-09 00:02:00,
2013-02-09 00:07:00,36.8,33.3,30.15,NW,318,0.0,0.0,87,0.00,,,0.00,0,WeatherCatV1.13B101,2013-02-09 00:07:00,
2013-02-09 00:12:00,36.7,33.2,30.15,South,183,0.0,2.0,87,0.00,,,0.00,0,WeatherCatV1.13B101,2013-02-09 00:12:00,
2013-02-09 00:17:00,36.7,33.2,30.15,WSW,238,0.0,1.0,87,0.00,,,0.00,0,WeatherCatV1.13B101,2013-02-09 00:17:00,
2013-02-09 00:22:00,36.7,33.2,30.14,SSW,210,1.0,2.0,87,0.00,,,0.00,0,WeatherCatV1.13B101,2013-02-09 00:22:00,
2013-02-09 00:27:00,36.6,33.1,30.14,ESE,123,1.0,1.0,87,0.00,,,0.00,0,WeatherCatV1.13B101,2013-02-09 00:27:00,
2013-02-09 00:32:00,36.4,32.9,30.14,South,173,0.0,2.0,87,0.00,,,0.00,0,WeatherCatV1.13B101,2013-02-09 00:32:00,
2013-02-09 00:37:00,36.3,32.8,30.14,NNW,329,1.0,2.0,87,0.00,,,0.00,0,WeatherCatV1.13B101,2013-02-09 00:37:00,
2013-02-09 00:42:00,36.2,32.7,30.14,SSW,207,1.0,1.0,87,0.00,,,0.00,0,WeatherCatV1.13B101,2013-02-09 00:42:00,
2013-02-09 00:47:00,36.2,32.7,30.14,SSE,168,0.0,3.0,87,0.00,,,0.00,0,WeatherCatV1.13B101,2013-02-09 00:47:00,
2013-02-09 00:52:00,36.1,32.6,30.13,SSE,153,0.0,2.0,87,0.00,,,0.00,0,WeatherCatV1.13B101,2013-02-09 00:52:00,
2013-02-09 00:57:00,36.1,32.9,30.14,West,269,0.0,0.0,88,0.00,,,0.00,0,WeatherCatV1.13B101,2013-02-09 00:57:00,
2013-02-09 01:02:00,36.0,32.8,30.14,NNE,18,0.0,1.0,88,0.00,,,0.00,0,WeatherCatV1.13B101,2013-02-09 01:02:00,
2013-02-09 01:07:00,36.0,32.8,30.14,NE,42,0.0,1.0,88,0.00,,,0.00,0,WeatherCatV1.13B101,2013-02-09 01:07:00,
2013-02-09 01:12:00,36.0,32.8,30.15,SSE,165,0.0,0.0,88,0.00,,,0.00,0,WeatherCatV1.13B101,2013-02-09 01:12:00,
2013-02-09 01:17:00,35.9,32.7,30.15,SSE,165,0.0,0.0,88,0.00,,,0.00,0,WeatherCatV1.13B101,2013-02-09 01:17:00,
2013-02-09 01:22:00,35.9,32.7,30.15,SSE,165,0.0,1.0,88,0.00,,,0.00,0,WeatherCatV1.13B101,2013-02-09 01:22:00,
2013-02-09 01:27:00,35.9,33.0,30.15,SSE,165,0.0,0.0,89,0.00,,,0.00,0,WeatherCatV1.13B101,2013-02-09 01:27:00,
2013-02-09 01:32:00,35.9,33.0,30.15,SSE,165,0.0,0.0,89,0.00,,,0.00,0,WeatherCatV1.13B101,2013-02-09 01:32:00,
2013-02-09 01:37:00,35.8,32.9,30.15,WNW,295,0.0,2.0,89,0.00,,,0.00,0,WeatherCatV1.13B101,2013-02-09 01:37:00,
2013-02-09 01:42:00,35.7,32.8,30.15,WNW,295,0.0,1.0,89,0.00,,,0.00,0,WeatherCatV1.13B101,2013-02-09 01:42:00,
2013-02-09 01:47:00,35.7,32.8,30.15,WNW,295,0.0,0.0,89,0.00,,,0.00,0,WeatherCatV1.13B101,2013-02-09 01:47:00,
2013-02-09 01:52:00,35.7,32.8,30.15,WNW,294,0.0,0.0,89,0.00,,,0.00,0,WeatherCatV1.13B101,2013-02-09 01:52:00,
2013-02-09 01:57:00,35.7,32.8,30.15,WNW,294,0.0,0.0,89,0.00,,,0.00,0,WeatherCatV1.13B101,2013-02-09 01:57:00,
2013-02-09 02:02:00,35.7,32.8,30.15,WNW,294,0.0,0.0,89,0.00,,,0.00,0,WeatherCatV1.13B101,2013-02-09 02:02:00,
2013-02-09 02:07:00,35.6,32.7,30.15,WNW,294,0.0,0.0,89,0.00,,,0.00,0,WeatherCatV1.13B101,2013-02-09 02:07:00,
2013-02-09 02:12:00,35.5,32.6,30.15,WNW,294,0.0,0.0,89,0.00,,,0.00,0,WeatherCatV1.13B101,2013-02-09 02:12:00,
2013-02-09 02:17:00,35.4,32.5,30.15,WNW,294,0.0,0.0,89,0.00,,,0.00,0,WeatherCatV1.13B101,2013-02-09 02:17:00,
2013-02-09 02:22:00,35.3,32.7,30.15,WNW,294,0.0,0.0,90,0.00,,,0.00,0,WeatherCatV1.13B101,2013-02-09 02:22:00,
2013-02-09 02:27:00,35.2,32.6,30.15,WNW,294,0.0,0.0,90,0.00,,,0.00,0,WeatherCatV1.13B101,2013-02-09 02:27:00,
2013-02-09 02:32:00,35.1,32.5,30.15,WNW,295,0.0,0.0,90,0.00,,,0.00,0,WeatherCatV1.13B101,2013-02-09 02:32:00,
2013-02-09 02:37:00,35.1,32.5,30.15,WNW,294,0.0,0.0,90,0.00,,,0.00,0,WeatherCatV1.13B101,2013-02-09 02:37:00,
2013-02-09 02:42:00,35.0,32.4,30.15,WNW,294,0.0,0.0,90,0.00,,,0.00,0,WeatherCatV1.13B101,2013-02-09 02:42:00,
2013-02-09 02:47:00,35.1,32.7,30.15,WNW,294,0.0,0.0,91,0.00,,,0.00,0,WeatherCatV1.13B101,2013-02-09 02:47:00,
2013-02-09 02:52:00,35.1,32.7,30.15,WNW,294,0.0,0.0,91,0.00,,,0.00,0,WeatherCatV1.13B101,2013-02-09 02:52:00,
2013-02-09 02:57:00,35.0,32.6,30.14,WNW,294,0.0,0.0,91,0.00,,,0.00,0,WeatherCatV1.13B101,2013-02-09 02:57:00,
2013-02-09 03:02:00,34.8,32.4,30.14,WNW,294,0.0,0.0,91,0.00,,,0.00,0,WeatherCatV1.13B101,2013-02-09 03:02:00,
2013-02-09 03:07:00,34.8,32.4,30.14,WNW,294,0.0,0.0,91,0.00,,,0.00,0,WeatherCatV1.13B101,2013-02-09 03:07:00,
2013-02-09 03:12:00,34.8,32.4,30.14,WNW,294,0.0,0.0,91,0.00,,,0.00,0,WeatherCatV1.13B101,2013-02-09 03:12:00,
2013-02-09 03:17:00,34.8,32.4,30.14,WNW,294,0.0,0.0,91,0.00,,,0.00,0,WeatherCatV1.13B101,2013-02-09 03:17:00,
2013-02-09 03:22:00,34.7,32.3,30.14,WNW,294,0.0,0.0,91,0.00,,,0.00,0,WeatherCatV1.13B101,2013-02-09 03:22:00,
2013-02-09 03:27:00,34.7,32.3,30.14,WNW,294,0.0,0.0,91,0.00,,,0.00,0,WeatherCatV1.13B101,2013-02-09 03:27:00,
2013-02-09 03:32:00,34.7,32.3,30.14,WNW,295,0.0,0.0,91,0.00,,,0.00,0,WeatherCatV1.13B101,2013-02-09 03:32:00,
2013-02-09 03:37:00,34.6,32.2,30.14,WNW,294,0.0,0.0,91,0.00,,,0.00,0,WeatherCatV1.13B101,2013-02-09 03:37:00,
2013-02-09 03:42:00,34.6,32.2,30.14,WNW,294,0.0,0.0,91,0.00,,,0.00,0,WeatherCatV1.13B101,2013-02-09 03:42:00,
2013-02-09 03:47:00,34.6,32.5,30.13,WNW,294,0.0,0.0,92,0.00,,,0.00,0,WeatherCatV1.13B101,2013-02-09 03:47:00,
2013-02-09 03:52:00,34.5,32.4,30.13,WNW,294,0.0,0.0,92,0.00,,,0.00,0,WeatherCatV1.13B101,2013-02-09 03:52:00,
2013-02-09 03:57:00,34.6,32.5,30.13,WNW,294,0.0,0.0,92,0.00,,,0.00,0,WeatherCatV1.13B101,2013-02-09 03:57:00,
2013-02-09 04:02:00,34.6,32.5,30.13,WNW,294,0.0,0.0,92,0.00,,,0.00,0,WeatherCatV1.13B101,2013-02-09 04:02:00,
2013-02-09 04:07:00,34.5,32.4,30.13,WNW,294,0.0,0.0,92,0.00,,,0.00,0,WeatherCatV1.13B101,2013-02-09 04:07:00,
2013-02-09 04:12:00,34.6,32.5,30.13,WNW,294,0.0,0.0,92,0.00,,,0.00,0,WeatherCatV1.13B101,2013-02-09 04:12:00,
2013-02-09 04:17:00,34.7,32.6,30.13,WNW,294,0.0,0.0,92,0.00,,,0.00,0,WeatherCatV1.13B101,2013-02-09 04:17:00,
2013-02-09 04:22:00,34.5,32.4,30.13,WNW,294,0.0,0.0,92,0.00,,,0.00,0,WeatherCatV1.13B101,2013-02-09 04:22:00,
2013-02-09 04:27:00,34.5,32.4,30.13,WNW,294,0.0,0.0,92,0.00,,,0.00,0,WeatherCatV1.13B101,2013-02-09 04:27:00,
2013-02-09 04:32:00,34.5,32.4,30.13,WNW,294,0.0,0.0,92,0.00,,,0.00,0,WeatherCatV1.13B101,2013-02-09 04:32:00,
2013-02-09 04:37:00,34.4,32.3,30.13,WNW,295,0.0,0.0,92,0.00,,,0.00,0,WeatherCatV1.13B101,2013-02-09 04:37:00,
2013-02-09 04:42:00,34.4,32.3,30.13,WNW,294,0.0,0.0,92,0.00,,,0.00,0,WeatherCatV1.13B101,2013-02-09 04:42:00,
2013-02-09 04:47:00,34.4,32.3,30.13,WNW,294,0.0,0.0,92,0.00,,,0.00,0,WeatherCatV1.13B101,2013-02-09 04:47:00,
2013-02-09 04:52:00,34.3,32.2,30.13,WNW,294,0.0,0.0,92,0.00,,,0.00,0,WeatherCatV1.13B101,2013-02-09 04:52:00,
2013-02-09 04:57:00,34.3,32.2,30.13,WNW,294,0.0,0.0,92,0.00,,,0.00,0,WeatherCatV1.13B101,2013-02-09 04:57:00,
2013-02-09 05:00:00,34.3,32.5,30.13,WNW,294,0.0,0.0,93,0.00,,,0.00,0,WeatherCatV1.13B101,2013-02-09 05:00:00,
2013-02-09 05:05:00,34.2,32.1,30.13,WNW,294,0.0,0.0,92,0.00,,,0.00,0,WeatherCatV1.13B101,2013-02-09 05:05:00,
2013-02-09 05:10:00,34.2,32.4,30.13,WNW,294,0.0,0.0,93,0.00,,,0.00,0,WeatherCatV1.13B101,2013-02-09 05:10:00,
2013-02-09 05:15:00,34.2,32.4,30.13,WNW,294,0.0,0.0,93,0.00,,,0.00,0,WeatherCatV1.13B101,2013-02-09 05:15:00,
2013-02-09 05:20:00,34.1,32.3,30.13,WNW,294,0.0,0.0,93,0.00,,,0.00,0,WeatherCatV1.13B101,2013-02-09 05:20:00,
2013-02-09 05:25:00,34.1,32.3,30.13,WNW,294,0.0,1.0,93,0.00,,,0.00,0,WeatherCatV1.13B101,2013-02-09 05:25:00,
2013-02-09 05:30:00,34.1,32.3,30.13,WNW,294,0.0,1.0,93,0.00,,,0.00,0,WeatherCatV1.13B101,2013-02-09 05:30:00,
2013-02-09 05:35:00,34.1,32.3,30.13,WNW,294,0.0,1.0,93,0.00,,,0.00,0,WeatherCatV1.13B101,2013-02-09 05:35:00,
2013-02-09 05:40:00,34.2,32.4,30.13,WNW,294,0.0,1.0,93,0.00,,,0.00,0,WeatherCatV1.13B101,2013-02-09 05:40:00,
2013-02-09 05:45:00,34.3,32.5,30.13,WNW,294,1.0,2.0,93,0.00,,,0.00,0,WeatherCatV1.13B101,2013-02-09 05:45:00,
2013-02-09 05:50:00,34.4,32.9,30.13,WNW,295,0.0,1.0,94,0.00,,,0.00,0,WeatherCatV1.13B101,2013-02-09 05:50:00,
2013-02-09 05:55:00,34.4,32.9,30.12,WNW,294,0.0,2.0,94,0.00,,,0.00,0,WeatherCatV1.13B101,2013-02-09 05:55:00,
2013-02-09 06:00:00,34.6,33.1,30.13,WNW,294,0.0,0.0,94,0.00,,,0.00,0,WeatherCatV1.13B101,2013-02-09 06:00:00,
2013-02-09 06:05:00,34.6,33.1,30.12,WNW,294,0.0,0.0,94,0.00,,,0.00,0,WeatherCatV1.13B101,2013-02-09 06:05:00,
2013-02-09 06:10:00,34.6,33.1,30.13,WNW,295,0.0,0.0,94,0.00,,,0.00,0,WeatherCatV1.13B101,2013-02-09 06:10:00,
2013-02-09 06:15:00,34.7,33.2,30.13,WNW,294,0.0,0.0,94,0.00,,,0.00,0,WeatherCatV1.13B101,2013-02-09 06:15:00,
2013-02-09 06:20:00,34.7,33.2,30.13,WNW,294,0.0,0.0,94,0.00,,,0.00,0,WeatherCatV1.13B101,2013-02-09 06:20:00,
2013-02-09 06:25:00,34.7,33.2,30.13,WNW,294,0.0,1.0,94,0.00,,,0.00,0,WeatherCatV1.13B101,2013-02-09 06:25:00,
2013-02-09 06:30:00,34.8,33.3,30.13,WNW,294,0.0,1.0,94,0.00,,,0.00,0,WeatherCatV1.13B101,2013-02-09 06:30:00,
2013-02-09 06:35:00,34.8,33.3,30.12,WNW,294,0.0,1.0,94,0.00,,,0.00,0,WeatherCatV1.13B101,2013-02-09 06:35:00,
2013-02-09 06:40:00,34.9,33.4,30.12,WNW,295,0.0,1.0,94,0.00,,,0.00,0,WeatherCatV1.13B101,2013-02-09 06:40:00,
2013-02-09 06:45:00,35.0,33.5,30.12,WNW,294,1.0,1.0,94,0.00,,,0.00,0,WeatherCatV1.13B101,2013-02-09 06:45:00,
2013-02-09 06:50:00,35.1,33.5,30.12,WNW,294,0.0,1.0,94,0.00,,,0.00,0,WeatherCatV1.13B101,2013-02-09 06:50:00,
2013-02-09 06:55:00,35.1,33.5,30.12,WNW,294,0.0,0.0,94,0.00,,,0.00,0,WeatherCatV1.13B101,2013-02-09 06:55:00,
2013-02-09 07:00:00,35.2,33.6,30.13,WNW,294,0.0,0.0,94,0.00,,,0.00,0,WeatherCatV1.13B101,2013-02-09 07:00:00,
2013-02-09 07:05:00,35.2,33.6,30.12,WNW,294,0.0,0.0,94,0.00,,,0.00,0,WeatherCatV1.13B101,2013-02-09 07:05:00,
2013-02-09 07:10:00,35.3,33.7,30.13,WNW,295,0.0,1.0,94,0.00,,,0.00,0,WeatherCatV1.13B101,2013-02-09 07:10:00,
2013-02-09 07:15:00,35.4,33.8,30.12,WNW,294,0.0,0.0,94,0.00,,,0.00,0,WeatherCatV1.13B101,2013-02-09 07:15:00,
2013-02-09 07:20:00,35.4,33.8,30.12,WNW,294,0.0,1.0,94,0.00,,,0.00,0,WeatherCatV1.13B101,2013-02-09 07:20:00,
2013-02-09 07:25:00,35.5,33.9,30.12,WNW,294,0.0,0.0,94,0.00,,,0.00,0,WeatherCatV1.13B101,2013-02-09 07:25:00,
2013-02-09 07:30:00,35.6,34.0,30.12,WNW,294,0.0,0.0,94,0.00,,,0.00,5,WeatherCatV1.13B101,2013-02-09 07:30:00,
2013-02-09 07:35:00,35.6,34.0,30.12,WNW,294,0.0,1.0,94,0.00,,,0.00,0,WeatherCatV1.13B101,2013-02-09 07:35:00,
2013-02-09 07:40:00,35.6,34.0,30.13,WNW,294,0.0,2.0,94,0.00,,,0.00,9,WeatherCatV1.13B101,2013-02-09 07:40:00,
2013-02-09 07:45:00,35.7,33.9,30.13,WNW,294,0.0,0.0,93,0.00,,,0.00,7,WeatherCatV1.13B101,2013-02-09 07:45:00,
2013-02-09 07:50:00,35.7,33.9,30.13,WNW,294,0.0,0.0,93,0.00,,,0.00,9,WeatherCatV1.13B101,2013-02-09 07:50:00,
2013-02-09 07:55:00,35.7,33.9,30.13,WNW,295,0.0,1.0,93,0.00,,,0.00,18,WeatherCatV1.13B101,2013-02-09 07:55:00,
2013-02-09 08:00:00,35.8,34.0,30.13,WNW,294,2.0,2.0,93,0.00,,,0.00,23,WeatherCatV1.13B101,2013-02-09 08:00:00,
2013-02-09 08:05:00,35.8,34.0,30.13,WNW,294,0.0,1.0,93,0.00,,,0.00,32,WeatherCatV1.13B101,2013-02-09 08:05:00,
2013-02-09 08:10:00,35.9,34.3,30.13,WNW,294,0.0,1.0,94,0.00,,,0.00,33,WeatherCatV1.13B101,2013-02-09 08:10:00,
2013-02-09 08:15:00,36.0,34.4,30.13,WNW,294,0.0,1.0,94,0.00,,,0.00,40,WeatherCatV1.13B101,2013-02-09 08:15:00,
2013-02-09 08:20:00,36.1,34.5,30.13,WNW,294,0.0,1.0,94,0.00,,,0.00,40,WeatherCatV1.13B101,2013-02-09 08:20:00,
2013-02-09 08:25:00,36.2,34.6,30.13,WNW,294,0.0,0.0,94,0.00,,,0.00,39,WeatherCatV1.13B101,2013-02-09 08:25:00,
2013-02-09 08:30:00,36.3,34.7,30.13,WNW,295,0.0,1.0,94,0.00,,,0.00,40,WeatherCatV1.13B101,2013-02-09 08:30:00,
2013-02-09 08:35:00,36.4,34.8,30.13,WNW,294,0.0,2.0,94,0.00,,,0.00,40,WeatherCatV1.13B101,2013-02-09 08:35:00,
2013-02-09 08:40:00,36.4,34.8,30.13,WNW,294,1.0,3.0,94,0.00,,,0.00,39,WeatherCatV1.13B101,2013-02-09 08:40:00,
2013-02-09 08:45:00,36.5,34.9,30.13,WNW,294,1.0,2.0,94,0.00,,,0.00,39,WeatherCatV1.13B101,2013-02-09 08:45:00,
2013-02-09 08:50:00,36.6,35.0,30.13,WNW,294,1.0,2.0,94,0.00,,,0.00,42,WeatherCatV1.13B101,2013-02-09 08:50:00,
2013-02-09 08:55:00,36.6,35.0,30.13,WNW,298,0.0,1.0,94,0.00,,,0.00,51,WeatherCatV1.13B101,2013-02-09 08:55:00,
2013-02-09 09:00:00,36.6,35.0,30.13,WNW,298,1.0,2.0,94,0.00,,,0.00,51,WeatherCatV1.13B101,2013-02-09 09:00:00,
2013-02-09 09:05:00,36.7,35.1,30.13,WNW,299,1.0,2.0,94,0.00,,,0.00,51,WeatherCatV1.13B101,2013-02-09 09:05:00,
2013-02-09 09:10:00,36.7,35.1,30.13,NW,306,2.0,2.0,94,0.00,,,0.00,63,WeatherCatV1.13B101,2013-02-09 09:10:00,
2013-02-09 09:15:00,36.6,35.0,30.12,NW,306,2.0,2.0,94,0.00,,,0.00,79,WeatherCatV1.13B101,2013-02-09 09:15:00,
2013-02-09 09:20:00,36.8,35.2,30.13,NW,306,1.0,3.0,94,0.00,,,0.00,76,WeatherCatV1.13B101,2013-02-09 09:20:00,
2013-02-09 09:25:00,36.8,35.2,30.13,NNW,348,1.0,3.0,94,0.00,,,0.00,77,WeatherCatV1.13B101,2013-02-09 09:25:00,
2013-02-09 09:30:00,36.9,35.3,30.13,NW,317,2.0,5.0,94,0.00,,,0.00,88,WeatherCatV1.13B101,2013-02-09 09:30:00,
2013-02-09 09:31:00,36.8,35.2,30.13,NW,317,1.0,5.0,94,0.00,,,0.00,88,WeatherCatV1.13B101,2013-02-09 09:31:00,
2013-02-09 09:36:00,36.9,35.3,30.13,NW,317,1.0,2.0,94,0.00,,,0.00,79,WeatherCatV1.13B101,2013-02-09 09:36:00,
2013-02-09 09:41:00,37.0,35.4,30.13,NW,325,1.0,4.0,94,0.00,,,0.00,83,WeatherCatV1.13B101,2013-02-09 09:41:00,
2013-02-09 09:46:00,37.1,35.5,30.13,NW,325,1.0,1.0,94,0.00,,,0.00,83,WeatherCatV1.13B101,2013-02-09 09:46:00,
2013-02-09 09:51:00,37.2,35.6,30.13,NW,325,1.0,3.0,94,0.00,,,0.00,86,WeatherCatV1.13B101,2013-02-09 09:51:00,
2013-02-09 09:56:00,37.2,35.6,30.12,NW,325,0.0,0.0,94,0.00,,,0.00,84,WeatherCatV1.13B101,2013-02-09 09:56:00,
2013-02-09 10:01:00,37.2,35.6,30.12,NW,325,2.0,3.0,94,0.00,,,0.00,81,WeatherCatV1.13B101,2013-02-09 10:01:00,
2013-02-09 10:06:00,37.3,35.7,30.12,NW,325,0.0,0.0,94,0.00,,,0.00,76,WeatherCatV1.13B101,2013-02-09 10:06:00,
2013-02-09 10:11:00,37.4,35.8,30.12,NW,325,0.0,1.0,94,0.00,,,0.00,88,WeatherCatV1.13B101,2013-02-09 10:11:00,
2013-02-09 10:16:00,37.5,35.9,30.12,NW,325,1.0,1.0,94,0.00,,,0.00,88,WeatherCatV1.13B101,2013-02-09 10:16:00,
2013-02-09 10:21:00,37.5,35.9,30.12,NW,325,1.0,2.0,94,0.00,,,0.00,98,WeatherCatV1.13B101,2013-02-09 10:21:00,
2013-02-09 10:26:00,37.6,36.0,30.12,NW,325,2.0,2.0,94,0.00,,,0.00,104,WeatherCatV1.13B101,2013-02-09 10:26:00,
2013-02-09 10:31:00,37.6,36.0,30.12,NW,325,0.0,3.0,94,0.00,,,0.00,91,WeatherCatV1.13B101,2013-02-09 10:31:00,
2013-02-09 10:36:00,37.7,36.1,30.12,WNW,291,3.0,3.0,94,0.00,,,0.00,88,WeatherCatV1.13B101,2013-02-09 10:36:00,
2013-02-09 10:41:00,37.6,36.0,30.12,WNW,294,0.0,3.0,94,0.00,,,0.00,98,WeatherCatV1.13B101,2013-02-09 10:41:00,
2013-02-09 10:46:00,37.7,36.1,30.12,NW,314,2.0,4.0,94,0.00,,,0.00,91,WeatherCatV1.13B101,2013-02-09 10:46:00,
2013-02-09 10:51:00,37.5,35.9,30.12,NW,313,3.0,3.0,94,0.00,,,0.00,86,WeatherCatV1.13B101,2013-02-09 10:51:00,
2013-02-09 10:56:00,37.5,35.9,30.12,NW,315,4.0,4.0,94,0.00,,,0.00,111,WeatherCatV1.13B101,2013-02-09 10:56:00,
2013-02-09 11:01:00,37.5,35.9,30.12,NW,311,0.0,2.0,94,0.00,,,0.00,91,WeatherCatV1.13B101,2013-02-09 11:01:00,
2013-02-09 11:06:00,37.7,36.1,30.12,NW,313,2.0,3.0,94,0.00,,,0.00,88,WeatherCatV1.13B101,2013-02-09 11:06:00,
2013-02-09 11:11:00,37.6,36.0,30.12,NW,319,3.0,3.0,94,0.00,,,0.00,137,WeatherCatV1.13B101,2013-02-09 11:11:00,
2013-02-09 11:16:00,37.7,36.1,30.12,WNW,283,3.0,4.0,94,0.00,,,0.00,98,WeatherCatV1.13B101,2013-02-09 11:16:00,
2013-02-09 11:21:00,37.7,36.1,30.11,WNW,302,3.0,3.0,94,0.00,,,0.00,121,WeatherCatV1.13B101,2013-02-09 11:21:00,
2013-02-09 11:26:00,37.7,36.1,30.11,NW,304,1.0,2.0,94,0.00,,,0.00,97,WeatherCatV1.13B101,2013-02-09 11:26:00,
2013-02-09 11:31:00,37.8,36.2,30.11,NW,304,0.0,2.0,94,0.00,,,0.00,69,WeatherCatV1.13B101,2013-02-09 11:31:00,
2013-02-09 11:36:00,37.9,36.3,30.11,WNW,302,2.0,3.0,94,0.00,,,0.00,70,WeatherCatV1.13B101,2013-02-09 11:36:00,
2013-02-09 11:41:00,37.9,36.3,30.11,WNW,301,2.0,4.0,94,0.00,,,0.00,88,WeatherCatV1.13B101,2013-02-09 11:41:00,
2013-02-09 11:46:00,37.9,36.3,30.11,NW,309,3.0,4.0,94,0.00,,,0.00,134,WeatherCatV1.13B101,2013-02-09 11:46:00,
2013-02-09 11:51:00,38.0,36.4,30.10,NW,315,3.0,4.0,94,0.00,,,0.00,121,WeatherCatV1.13B101,2013-02-09 11:51:00,
2013-02-09 11:56:00,37.9,36.3,30.10,NW,313,2.0,2.0,94,0.00,,,0.00,88,WeatherCatV1.13B101,2013-02-09 11:56:00,
2013-02-09 12:01:00,37.9,36.1,30.10,NW,310,1.0,3.0,93,0.00,,,0.00,65,WeatherCatV1.13B101,2013-02-09 12:01:00,
2013-02-09 12:06:00,37.9,36.3,30.10,NW,310,1.0,2.0,94,0.00,,,0.00,67,WeatherCatV1.13B101,2013-02-09 12:06:00,
2013-02-09 12:11:00,37.9,36.1,30.09,NW,307,0.0,4.0,93,0.00,,,0.00,111,WeatherCatV1.13B101,2013-02-09 12:11:00,
2013-02-09 12:16:00,37.9,36.3,30.09,NW,308,3.0,4.0,94,0.00,,,0.00,135,WeatherCatV1.13B101,2013-02-09 12:16:00,
2013-02-09 12:21:00,37.8,36.2,30.09,NW,313,2.0,3.0,94,0.00,,,0.00,116,WeatherCatV1.13B101,2013-02-09 12:21:00,
2013-02-09 12:26:00,37.8,36.0,30.09,NW,308,2.0,3.0,93,0.00,,,0.00,109,WeatherCatV1.13B101,2013-02-09 12:26:00,
2013-02-09 12:31:00,37.7,35.9,30.09,WNW,293,0.0,2.0,93,0.00,,,0.00,113,WeatherCatV1.13B101,2013-02-09 12:31:00,
2013-02-09 12:36:00,37.8,36.2,30.09,WNW,296,1.0,3.0,94,0.00,,,0.00,84,WeatherCatV1.13B101,2013-02-09 12:36:00,
2013-02-09 12:41:00,37.8,36.2,30.09,NW,311,1.0,3.0,94,0.00,,,0.00,76,WeatherCatV1.13B101,2013-02-09 12:41:00,
2013-02-09 12:46:00,37.8,36.2,30.09,NW,311,1.0,3.0,94,0.00,,,0.00,88,WeatherCatV1.13B101,2013-02-09 12:46:00,
2013-02-09 12:51:00,37.7,35.9,30.08,NW,305,1.0,2.0,93,0.00,,,0.00,69,WeatherCatV1.13B101,2013-02-09 12:51:00,
2013-02-09 12:56:00,37.7,36.1,30.08,NW,305,0.0,3.0,94,0.00,,,0.00,72,WeatherCatV1.13B101,2013-02-09 12:56:00,
2013-02-09 13:01:00,37.8,36.2,30.08,NW,306,1.0,3.0,94,0.00,,,0.00,70,WeatherCatV1.13B101,2013-02-09 13:01:00,
2013-02-09 13:06:00,37.7,36.1,30.08,NW,311,1.0,5.0,94,0.00,,,0.00,111,WeatherCatV1.13B101,2013-02-09 13:06:00,
2013-02-09 13:11:00,37.7,36.1,30.08,NW,315,0.0,3.0,94,0.00,,,0.00,151,WeatherCatV1.13B101,2013-02-09 13:11:00,
2013-02-09 13:16:00,38.0,36.4,30.08,NW,319,0.0,2.0,94,0.00,,,0.00,118,WeatherCatV1.13B101,2013-02-09 13:16:00,
2013-02-09 13:21:00,37.8,36.2,30.08,NW,323,3.0,3.0,94,0.00,,,0.00,98,WeatherCatV1.13B101,2013-02-09 13:21:00,
2013-02-09 13:26:00,37.9,36.3,30.07,NW,309,1.0,2.0,94,0.00,,,0.00,98,WeatherCatV1.13B101,2013-02-09 13:26:00,
2013-02-09 13:31:00,38.2,36.6,30.07,NW,309,2.0,3.0,94,0.00,,,0.00,111,WeatherCatV1.13B101,2013-02-09 13:31:00,
2013-02-09 13:36:00,38.1,36.3,30.07,WNW,292,1.0,3.0,93,0.00,,,0.00,111,WeatherCatV1.13B101,2013-02-09 13:36:00,
2013-02-09 13:41:00,38.1,36.5,30.07,NW,315,3.0,3.0,94,0.00,,,0.00,84,WeatherCatV1.13B101,2013-02-09 13:41:00,
2013-02-09 13:46:00,38.0,36.4,30.07,NW,315,1.0,4.0,94,0.00,,,0.01,95,WeatherCatV1.13B101,2013-02-09 13:46:00,
2013-02-09 13:51:00,38.2,36.6,30.07,NW,315,0.0,1.0,94,0.00,,,0.01,69,WeatherCatV1.13B101,2013-02-09 13:51:00,
2013-02-09 13:56:00,38.2,36.6,30.07,NW,315,1.0,2.0,94,0.00,,,0.01,49,WeatherCatV1.13B101,2013-02-09 13:56:00,
2013-02-09 14:01:00,38.3,36.7,30.07,WNW,298,0.0,3.0,94,0.00,,,0.01,98,WeatherCatV1.13B101,2013-02-09 14:01:00,
2013-02-09 14:06:00,38.4,36.8,30.07,WNW,298,0.0,1.0,94,0.00,,,0.01,97,WeatherCatV1.13B101,2013-02-09 14:06:00,
2013-02-09 14:11:00,38.4,36.8,30.06,WNW,298,0.0,2.0,94,0.00,,,0.01,67,WeatherCatV1.13B101,2013-02-09 14:11:00,
2013-02-09 14:16:00,38.3,36.7,30.06,WNW,298,1.0,2.0,94,0.00,,,0.01,63,WeatherCatV1.13B101,2013-02-09 14:16:00,
2013-02-09 14:21:00,38.2,36.6,30.06,WNW,298,1.0,1.0,94,0.00,,,0.01,60,WeatherCatV1.13B101,2013-02-09 14:21:00,
2013-02-09 14:26:00,38.3,36.7,30.06,West,265,1.0,3.0,94,0.00,,,0.01,60,WeatherCatV1.13B101,2013-02-09 14:26:00,
2013-02-09 14:31:00,38.3,36.7,30.05,WNW,294,1.0,1.0,94,0.00,,,0.01,74,WeatherCatV1.13B101,2013-02-09 14:31:00,
2013-02-09 14:36:00,38.2,36.6,30.05,NW,305,2.0,5.0,94,0.00,,,0.01,67,WeatherCatV1.13B101,2013-02-09 14:36:00,
2013-02-09 14:41:00,37.8,36.0,30.05,NW,304,1.0,4.0,93,0.00,,,0.01,63,WeatherCatV1.13B101,2013-02-09 14:41:00,
2013-02-09 14:46:00,37.8,36.2,30.05,WNW,303,1.0,3.0,94,0.00,,,0.01,54,WeatherCatV1.13B101,2013-02-09 14:46:00,
2013-02-09 14:51:00,37.8,36.2,30.05,WNW,294,0.0,3.0,94,0.00,,,0.01,35,WeatherCatV1.13B101,2013-02-09 14:51:00,
2013-02-09 14:56:00,37.8,36.2,30.04,WNW,302,0.0,2.0,94,0.00,,,0.01,65,WeatherCatV1.13B101,2013-02-09 14:56:00,
2013-02-09 15:01:00,37.9,36.3,30.04,WNW,302,0.0,0.0,94,0.00,,,0.01,35,WeatherCatV1.13B101,2013-02-09 15:01:00,
2013-02-09 15:06:00,38.1,36.5,30.04,WNW,303,0.0,1.0,94,0.00,,,0.01,26,WeatherCatV1.13B101,2013-02-09 15:06:00,
2013-02-09 15:11:00,38.3,37.0,30.04,WNW,303,0.0,1.0,95,0.00,,,0.01,25,WeatherCatV1.13B101,2013-02-09 15:11:00,
2013-02-09 15:16:00,38.4,36.8,30.04,SE,127,0.0,3.0,94,0.00,,,0.01,42,WeatherCatV1.13B101,2013-02-09 15:16:00,
2013-02-09 15:21:00,38.3,36.7,30.03,NW,315,1.0,2.0,94,0.00,,,0.01,53,WeatherCatV1.13B101,2013-02-09 15:21:00,
2013-02-09 15:26:00,38.2,36.6,30.03,NNW,329,0.0,2.0,94,0.00,,,0.01,56,WeatherCatV1.13B101,2013-02-09 15:26:00,
2013-02-09 15:31:00,38.2,36.6,30.03,NW,311,0.0,1.0,94,0.00,,,0.01,53,WeatherCatV1.13B101,2013-02-09 15:31:00,
2013-02-09 15:36:00,38.3,37.0,30.03,SSE,162,0.0,3.0,95,0.00,,,0.01,49,WeatherCatV1.13B101,2013-02-09 15:36:00,
2013-02-09 15:41:00,38.4,37.1,30.03,WNW,300,1.0,3.0,95,0.00,,,0.01,53,WeatherCatV1.13B101,2013-02-09 15:41:00,
2013-02-09 15:46:00,38.4,36.8,30.03,South,177,1.0,3.0,94,0.00,,,0.01,47,WeatherCatV1.13B101,2013-02-09 15:46:00,
2013-02-09 15:51:00,38.4,36.8,30.03,North,5,0.0,1.0,94,0.00,,,0.01,33,WeatherCatV1.13B101,2013-02-09 15:51:00,
2013-02-09 15:56:00,38.4,36.8,30.02,SE,134,1.0,2.0,94,0.00,,,0.01,35,WeatherCatV1.13B101,2013-02-09 15:56:00,
2013-02-09 16:01:00,38.5,36.9,30.02,East,91,1.0,2.0,94,0.00,,,0.01,33,WeatherCatV1.13B101,2013-02-09 16:01:00,
2013-02-09 16:06:00,38.4,36.8,30.02,North,355,1.0,2.0,94,0.00,,,0.01,25,WeatherCatV1.13B101,2013-02-09 16:06:00,
2013-02-09 16:11:00,38.4,36.8,30.02,SE,133,0.0,1.0,94,0.00,,,0.01,21,WeatherCatV1.13B101,2013-02-09 16:11:00,
2013-02-09 16:16:00,38.6,37.0,30.02,ESE,119,0.0,2.0,94,0.00,,,0.01,21,WeatherCatV1.13B101,2013-02-09 16:16:00,
2013-02-09 16:21:00,38.5,36.9,30.02,SE,130,0.0,2.0,94,0.00,,,0.01,19,WeatherCatV1.13B101,2013-02-09 16:21:00,
2013-02-09 16:26:00,38.5,36.9,30.02,SE,135,2.0,3.0,94,0.00,,,0.01,11,WeatherCatV1.13B101,2013-02-09 16:26:00,
2013-02-09 16:31:00,38.4,36.8,30.02,SE,133,0.0,3.0,94,0.00,,,0.01,7,WeatherCatV1.13B101,2013-02-09 16:31:00,
2013-02-09 16:36:00,38.4,36.8,30.02,SE,131,2.0,5.0,94,0.00,,,0.01,11,WeatherCatV1.13B101,2013-02-09 16:36:00,
2013-02-09 16:41:00,38.3,36.7,30.01,SE,132,2.0,2.0,94,0.00,,,0.01,5,WeatherCatV1.13B101,2013-02-09 16:41:00,
2013-02-09 16:46:00,38.3,36.7,30.01,SE,146,4.0,7.0,94,0.00,,,0.01,5,WeatherCatV1.13B101,2013-02-09 16:46:00,
2013-02-09 16:51:00,38.2,36.6,30.01,SE,128,3.0,6.0,94,0.00,,,0.01,0,WeatherCatV1.13B101,2013-02-09 16:51:00,
2013-02-09 16:56:00,38.1,36.5,30.01,SE,136,1.0,4.0,94,0.00,,,0.01,0,WeatherCatV1.13B101,2013-02-09 16:56:00,
2013-02-09 17:01:00,38.1,36.5,30.01,SE,144,2.0,4.0,94,0.00,,,0.01,0,WeatherCatV1.13B101,2013-02-09 17:01:00,
2013-02-09 17:06:00,38.0,36.4,30.01,SE,132,2.0,6.0,94,0.00,,,0.01,0,WeatherCatV1.13B101,2013-02-09 17:06:00,
2013-02-09 17:11:00,38.0,36.4,30.01,SE,131,3.0,6.0,94,0.00,,,0.01,0,WeatherCatV1.13B101,2013-02-09 17:11:00,
2013-02-09 17:16:00,38.0,36.4,30.01,SE,138,0.0,5.0,94,0.00,,,0.01,0,WeatherCatV1.13B101,2013-02-09 17:16:00,
2013-02-09 17:21:00,38.0,36.4,30.01,SE,144,0.0,2.0,94,0.00,,,0.01,0,WeatherCatV1.13B101,2013-02-09 17:21:00,
2013-02-09 17:26:00,37.9,36.3,30.01,ESE,111,0.0,2.0,94,0.00,,,0.01,0,WeatherCatV1.13B101,2013-02-09 17:26:00,
2013-02-09 17:31:00,37.9,36.3,30.00,SE,128,2.0,3.0,94,0.00,,,0.01,0,WeatherCatV1.13B101,2013-02-09 17:31:00,
2013-02-09 17:36:00,37.9,36.3,30.01,North,5,1.0,4.0,94,0.00,,,0.01,0,WeatherCatV1.13B101,2013-02-09 17:36:00,
2013-02-09 17:41:00,37.9,36.3,30.01,NE,39,1.0,3.0,94,0.00,,,0.01,0,WeatherCatV1.13B101,2013-02-09 17:41:00,
2013-02-09 17:46:00,37.9,36.3,30.00,SE,135,0.0,4.0,94,0.00,,,0.01,0,WeatherCatV1.13B101,2013-02-09 17:46:00,
2013-02-09 17:51:00,38.0,36.2,30.00,NNW,346,1.0,2.0,93,0.00,,,0.01,0,WeatherCatV1.13B101,2013-02-09 17:51:00,
2013-02-09 17:56:00,37.9,36.1,30.00,ESE,123,0.0,6.0,93,0.00,,,0.01,0,WeatherCatV1.13B101,2013-02-09 17:56:00,
2013-02-09 18:01:00,37.9,36.3,30.00,SE,142,1.0,2.0,94,0.00,,,0.01,0,WeatherCatV1.13B101,2013-02-09 18:01:00,
2013-02-09 18:06:00,37.9,36.3,30.00,SE,134,0.0,1.0,94,0.00,,,0.01,0,WeatherCatV1.13B101,2013-02-09 18:06:00,
2013-02-09 18:11:00,37.9,36.3,30.00,NW,313,0.0,3.0,94,0.00,,,0.01,0,WeatherCatV1.13B101,2013-02-09 18:11:00,
2013-02-09 18:16:00,38.0,36.4,30.00,NW,313,2.0,2.0,94,0.00,,,0.01,0,WeatherCatV1.13B101,2013-02-09 18:16:00,
2013-02-09 18:21:00,38.0,36.4,30.00,NNE,24,0.0,1.0,94,0.00,,,0.01,0,WeatherCatV1.13B101,2013-02-09 18:21:00,
2013-02-09 18:26:00,38.0,36.4,30.00,NW,316,1.0,3.0,94,0.00,,,0.01,0,WeatherCatV1.13B101,2013-02-09 18:26:00,
2013-02-09 18:31:00,37.9,36.3,29.99,ESE,117,0.0,2.0,94,0.00,,,0.01,0,WeatherCatV1.13B101,2013-02-09 18:31:00,
2013-02-09 18:36:00,37.9,36.1,29.99,NNW,329,3.0,5.0,93,0.00,,,0.01,0,WeatherCatV1.13B101,2013-02-09 18:36:00,
2013-02-09 18:41:00,37.9,36.3,29.99,NW,318,0.0,0.0,94,0.00,,,0.01,0,WeatherCatV1.13B101,2013-02-09 18:41:00,
2013-02-09 18:46:00,38.0,36.4,29.99,NW,318,0.0,0.0,94,0.00,,,0.01,0,WeatherCatV1.13B101,2013-02-09 18:46:00,
2013-02-09 18:51:00,38.0,36.2,29.98,West,274,0.0,2.0,93,0.00,,,0.01,0,WeatherCatV1.13B101,2013-02-09 18:51:00,
2013-02-09 18:56:00,37.9,36.1,29.98,West,276,0.0,2.0,93,0.00,,,0.01,0,WeatherCatV1.13B101,2013-02-09 18:56:00,
2013-02-09 19:01:00,37.9,36.3,29.98,SE,136,2.0,2.0,94,0.00,,,0.01,0,WeatherCatV1.13B101,2013-02-09 19:01:00,
2013-02-09 19:06:00,37.9,36.3,29.98,SE,128,0.0,2.0,94,0.00,,,0.01,0,WeatherCatV1.13B101,2013-02-09 19:06:00,
2013-02-09 19:11:00,37.9,36.3,29.98,ESE,123,0.0,2.0,94,0.00,,,0.01,0,WeatherCatV1.13B101,2013-02-09 19:11:00,
2013-02-09 19:16:00,37.9,36.3,29.98,NW,305,0.0,3.0,94,0.00,,,0.01,0,WeatherCatV1.13B101,2013-02-09 19:16:00,
2013-02-09 19:21:00,37.9,36.3,29.97,North,5,0.0,2.0,94,0.00,,,0.01,0,WeatherCatV1.13B101,2013-02-09 19:21:00,
2013-02-09 19:26:00,37.9,36.3,29.97,North,5,0.0,4.0,94,0.00,,,0.01,0,WeatherCatV1.13B101,2013-02-09 19:26:00,
2013-02-09 19:31:00,37.9,36.3,29.97,SE,134,1.0,5.0,94,0.00,,,0.01,0,WeatherCatV1.13B101,2013-02-09 19:31:00,
2013-02-09 19:36:00,37.9,36.3,29.97,SE,134,2.0,2.0,94,0.00,,,0.01,0,WeatherCatV1.13B101,2013-02-09 19:36:00,
2013-02-09 19:41:00,38.0,36.4,29.97,SE,128,3.0,5.0,94,0.00,,,0.01,0,WeatherCatV1.13B101,2013-02-09 19:41:00,
2013-02-09 19:46:00,38.0,36.4,29.96,SE,146,2.0,3.0,94,0.00,,,0.01,0,WeatherCatV1.13B101,2013-02-09 19:46:00,
2013-02-09 19:51:00,38.0,36.4,29.96,SE,128,2.0,4.0,94,0.00,,,0.01,0,WeatherCatV1.13B101,2013-02-09 19:51:00,
2013-02-09 19:56:00,37.9,36.3,29.96,SE,132,1.0,3.0,94,0.00,,,0.01,0,WeatherCatV1.13B101,2013-02-09 19:56:00,
2013-02-09 20:01:00,37.9,36.3,29.96,SE,126,0.0,0.0,94,0.00,,,0.01,0,WeatherCatV1.13B101,2013-02-09 20:01:00,
2013-02-09 20:06:00,38.0,36.4,29.96,SE,126,0.0,2.0,94,0.00,,,0.01,0,WeatherCatV1.13B101,2013-02-09 20:06:00,
2013-02-09 20:11:00,38.0,36.4,29.95,SE,138,0.0,4.0,94,0.00,,,0.01,0,WeatherCatV1.13B101,2013-02-09 20:11:00,
2013-02-09 20:16:00,38.0,36.4,29.96,SE,130,2.0,5.0,94,0.00,,,0.01,0,WeatherCatV1.13B101,2013-02-09 20:16:00,
2013-02-09 20:21:00,38.0,36.4,29.95,SE,130,0.0,0.0,94,0.00,,,0.01,0,WeatherCatV1.13B101,2013-02-09 20:21:00,
2013-02-09 20:26:00,38.0,36.4,29.95,SE,130,1.0,3.0,94,0.00,,,0.01,0,WeatherCatV1.13B101,2013-02-09 20:26:00,
2013-02-09 20:31:00,38.0,36.4,29.95,WNW,291,1.0,4.0,94,0.00,,,0.01,0,WeatherCatV1.13B101,2013-02-09 20:31:00,
2013-02-09 20:36:00,37.8,36.2,29.95,NW,310,0.0,4.0,94,0.00,,,0.01,0,WeatherCatV1.13B101,2013-02-09 20:36:00,
2013-02-09 20:41:00,37.7,36.1,29.95,NNW,328,3.0,3.0,94,0.00,,,0.01,0,WeatherCatV1.13B101,2013-02-09 20:41:00,
2013-02-09 20:46:00,37.7,36.1,29.94,WNW,303,1.0,1.0,94,0.00,,,0.01,0,WeatherCatV1.13B101,2013-02-09 20:46:00,
2013-02-09 20:51:00,37.8,36.2,29.94,SE,125,0.0,2.0,94,0.00,,,0.01,0,WeatherCatV1.13B101,2013-02-09 20:51:00,
2013-02-09 20:56:00,37.9,36.3,29.93,SE,126,1.0,3.0,94,0.00,,,0.01,0,WeatherCatV1.13B101,2013-02-09 20:56:00,
2013-02-09 21:01:00,37.9,36.3,29.93,NW,312,0.0,1.0,94,0.00,,,0.01,0,WeatherCatV1.13B101,2013-02-09 21:01:00,
2013-02-09 21:06:00,37.9,36.3,29.93,NW,316,0.0,3.0,94,0.00,,,0.01,0,WeatherCatV1.13B101,2013-02-09 21:06:00,
2013-02-09 21:11:00,37.9,36.6,29.93,NNE,16,0.0,1.0,95,0.00,,,0.01,0,WeatherCatV1.13B101,2013-02-09 21:11:00,
2013-02-09 21:16:00,37.9,36.3,29.92,ESE,109,0.0,3.0,94,0.00,,,0.01,0,WeatherCatV1.13B101,2013-02-09 21:16:00,
2013-02-09 21:21:00,37.9,36.6,29.92,SE,135,0.0,1.0,95,0.00,,,0.01,0,WeatherCatV1.13B101,2013-02-09 21:21:00,
2013-02-09 21:26:00,37.9,36.6,29.92,SE,142,0.0,2.0,95,0.00,,,0.01,0,WeatherCatV1.13B101,2013-02-09 21:26:00,
2013-02-09 21:31:00,37.9,36.6,29.92,NW,312,2.0,3.0,95,0.00,,,0.01,0,WeatherCatV1.13B101,2013-02-09 21:31:00,
2013-02-09 21:36:00,37.9,36.6,29.91,SE,138,0.0,4.0,95,0.00,,,0.01,0,WeatherCatV1.13B101,2013-02-09 21:36:00,
2013-02-09 21:41:00,37.9,36.6,29.91,SSW,211,2.0,2.0,95,0.00,,,0.01,0,WeatherCatV1.13B101,2013-02-09 21:41:00,
2013-02-09 21:46:00,37.9,36.6,29.91,SE,132,3.0,4.0,95,0.00,,,0.01,0,WeatherCatV1.13B101,2013-02-09 21:46:00,
2013-02-09 21:51:00,37.9,36.6,29.91,SE,137,2.0,4.0,95,0.00,,,0.01,0,WeatherCatV1.13B101,2013-02-09 21:51:00,
2013-02-09 21:56:00,37.8,36.5,29.91,SE,140,2.0,3.0,95,0.00,,,0.01,0,WeatherCatV1.13B101,2013-02-09 21:56:00,
2013-02-09 22:01:00,37.8,36.5,29.90,SE,136,3.0,4.0,95,0.00,,,0.01,0,WeatherCatV1.13B101,2013-02-09 22:01:00,
2013-02-09 22:06:00,37.8,36.5,29.90,SE,128,3.0,5.0,95,0.00,,,0.01,0,WeatherCatV1.13B101,2013-02-09 22:06:00,
2013-02-09 22:11:00,37.8,36.5,29.90,SSE,149,3.0,7.0,95,0.00,,,0.01,0,WeatherCatV1.13B101,2013-02-09 22:11:00,
2013-02-09 22:16:00,37.8,36.5,29.90,SE,127,1.0,4.0,95,0.00,,,0.01,0,WeatherCatV1.13B101,2013-02-09 22:16:00,
2013-02-09 22:21:00,37.8,36.5,29.90,SE,133,3.0,6.0,95,0.00,,,0.01,0,WeatherCatV1.13B101,2013-02-09 22:21:00,
2013-02-09 22:26:00,37.8,36.5,29.90,SE,134,2.0,3.0,95,0.00,,,0.01,0,WeatherCatV1.13B101,2013-02-09 22:26:00,
2013-02-09 22:31:00,37.8,36.5,29.89,SE,130,3.0,5.0,95,0.00,,,0.01,0,WeatherCatV1.13B101,2013-02-09 22:31:00,
2013-02-09 22:36:00,37.8,36.5,29.89,SE,128,4.0,4.0,95,0.00,,,0.01,0,WeatherCatV1.13B101,2013-02-09 22:36:00,
2013-02-09 22:41:00,37.9,36.6,29.89,SE,139,1.0,4.0,95,0.00,,,0.01,0,WeatherCatV1.13B101,2013-02-09 22:41:00,
2013-02-09 22:46:00,37.8,36.5,29.89,SE,132,2.0,3.0,95,0.00,,,0.01,0,WeatherCatV1.13B101,2013-02-09 22:46:00,
2013-02-09 22:51:00,37.9,36.6,29.88,SE,128,2.0,4.0,95,0.00,,,0.01,0,WeatherCatV1.13B101,2013-02-09 22:51:00,
2013-02-09 22:56:00,37.9,36.6,29.88,SE,146,3.0,6.0,95,0.00,,,0.01,0,WeatherCatV1.13B101,2013-02-09 22:56:00,
2013-02-09 23:01:00,37.9,36.6,29.88,SE,128,2.0,4.0,95,0.00,,,0.01,0,WeatherCatV1.13B101,2013-02-09 23:01:00,
2013-02-09 23:06:00,37.9,36.6,29.87,SE,132,3.0,4.0,95,0.00,,,0.01,0,WeatherCatV1.13B101,2013-02-09 23:06:00,
2013-02-09 23:11:00,37.9,36.6,29.87,SE,133,1.0,3.0,95,0.00,,,0.01,0,WeatherCatV1.13B101,2013-02-09 23:11:00,
2013-02-09 23:16:00,38.0,36.7,29.87,SE,136,2.0,3.0,95,0.00,,,0.01,0,WeatherCatV1.13B101,2013-02-09 23:16:00,
2013-02-09 23:21:00,38.0,36.7,29.87,SE,140,3.0,3.0,95,0.00,,,0.01,0,WeatherCatV1.13B101,2013-02-09 23:21:00,
2013-02-09 23:26:00,38.0,36.7,29.86,SE,134,0.0,3.0,95,0.00,,,0.01,0,WeatherCatV1.13B101,2013-02-09 23:26:00,
2013-02-09 23:31:00,38.1,36.8,29.86,SE,125,1.0,6.0,95,0.00,,,0.01,0,WeatherCatV1.13B101,2013-02-09 23:31:00,
2013-02-09 23:45:00,38.0,37.0,29.86,SE,128,1.0,4.0,96,0.00,,,0.02,0,WeatherCatV1.13B101,2013-02-09 23:45:00,
2013-02-09 23:50:00,38.0,37.0,29.86,SE,142,1.0,4.0,96,0.00,,,0.02,0,WeatherCatV1.13B101,2013-02-09 23:50:00,
2013-02-09 23:55:00,38.0,37.0,29.85,SE,140,0.0,2.0,96,0.00,,,0.02,0,WeatherCatV1.13B101,2013-02-09 23:55:00,